sensor_id;sensor_type;location;lat;lon;timestamp;temperature;humidity
9486;DHT22;4781;48.776;9.200;2023-08-17T00:00:41;20.30;99.90
9486;DHT22;4781;48.776;9.200;2023-08-17T00:03:09;20.30;99.90
9486;DHT22;4781;48.776;9.200;2023-08-17T00:05:36;20.30;99.90
9486;DHT22;4781;48.776;9.200;2023-08-17T00:08:04;20.30;99.90
9486;DHT22;4781;48.776;9.200;2023-08-17T00:10:32;20.30;99.90
9486;DHT22;4781;48.776;9.200;2023-08-17T00:12:59;20.30;99.90
9486;DHT22;4781;48.776;9.200;2023-08-17T00:15:28;20.30;99.90
9486;DHT22;4781;48.776;9.200;2023-08-17T00:17:56;20.30;99.90
9486;DHT22;4781;48.776;9.200;2023-08-17T00:20:23;20.30;99.90
9486;DHT22;4781;48.776;9.200;2023-08-17T00:22:51;20.30;99.90
9486;DHT22;4781;48.776;9.200;2023-08-17T00:25:19;20.40;99.90
9486;DHT22;4781;48.776;9.200;2023-08-17T00:27:46;20.40;99.90
9486;DHT22;4781;48.776;9.200;2023-08-17T00:30:14;20.30;99.90
9486;DHT22;4781;48.776;9.200;2023-08-17T00:32:41;20.30;99.90
9486;DHT22;4781;48.776;9.200;2023-08-17T00:35:09;20.30;99.90
9486;DHT22;4781;48.776;9.200;2023-08-17T00:37:37;20.30;99.90
9486;DHT22;4781;48.776;9.200;2023-08-17T00:40:05;20.30;99.90
9486;DHT22;4781;48.776;9.200;2023-08-17T00:42:32;20.40;99.90
9486;DHT22;4781;48.776;9.200;2023-08-17T00:45:00;20.40;99.90
9486;DHT22;4781;48.776;9.200;2023-08-17T00:47:29;20.40;99.90
9486;DHT22;4781;48.776;9.200;2023-08-17T00:49:57;20.40;99.90
9486;DHT22;4781;48.776;9.200;2023-08-17T00:52:25;20.50;99.90
9486;DHT22;4781;48.776;9.200;2023-08-17T00:54:55;20.50;99.90
9486;DHT22;4781;48.776;9.200;2023-08-17T00:57:23;20.50;99.90
9486;DHT22;4781;48.776;9.200;2023-08-17T00:59:51;20.50;99.90
9486;DHT22;4781;48.776;9.200;2023-08-17T01:02:19;20.50;99.90
9486;DHT22;4781;48.776;9.200;2023-08-17T01:04:47;20.50;99.90
9486;DHT22;4781;48.776;9.200;2023-08-17T01:07:14;20.50;99.90
9486;DHT22;4781;48.776;9.200;2023-08-17T01:09:42;20.40;99.90
9486;DHT22;4781;48.776;9.200;2023-08-17T01:12:30;20.40;99.90
9486;DHT22;4781;48.776;9.200;2023-08-17T01:15:17;20.50;99.90
9486;DHT22;4781;48.776;9.200;2023-08-17T01:17:50;20.50;99.90
9486;DHT22;4781;48.776;9.200;2023-08-17T01:20:17;20.60;99.90
9486;DHT22;4781;48.776;9.200;2023-08-17T01:22:45;20.50;99.90
9486;DHT22;4781;48.776;9.200;2023-08-17T01:25:14;20.60;99.90
9486;DHT22;4781;48.776;9.200;2023-08-17T01:27:44;20.60;99.90
9486;DHT22;4781;48.776;9.200;2023-08-17T01:30:15;20.60;99.90
9486;DHT22;4781;48.776;9.200;2023-08-17T01:33:01;20.60;99.90
9486;DHT22;4781;48.776;9.200;2023-08-17T01:35:34;20.70;99.90
9486;DHT22;4781;48.776;9.200;2023-08-17T01:38:06;20.70;99.90
9486;DHT22;4781;48.776;9.200;2023-08-17T01:40:34;20.70;99.90
9486;DHT22;4781;48.776;9.200;2023-08-17T01:43:02;20.70;99.90
9486;DHT22;4781;48.776;9.200;2023-08-17T01:45:30;20.70;99.90
9486;DHT22;4781;48.776;9.200;2023-08-17T01:47:58;20.70;99.90
9486;DHT22;4781;48.776;9.200;2023-08-17T01:50:26;20.70;99.90
9486;DHT22;4781;48.776;9.200;2023-08-17T01:52:54;20.70;99.90
9486;DHT22;4781;48.776;9.200;2023-08-17T01:55:22;20.70;99.90
9486;DHT22;4781;48.776;9.200;2023-08-17T01:57:50;20.70;99.90
9486;DHT22;4781;48.776;9.200;2023-08-17T02:00:17;20.70;99.90
9486;DHT22;4781;48.776;9.200;2023-08-17T02:02:45;20.70;99.90
9486;DHT22;4781;48.776;9.200;2023-08-17T02:05:12;20.70;99.90
9486;DHT22;4781;48.776;9.200;2023-08-17T02:07:40;20.70;99.90
9486;DHT22;4781;48.776;9.200;2023-08-17T02:10:08;20.80;99.90
9486;DHT22;4781;48.776;9.200;2023-08-17T02:12:36;20.70;99.90
9486;DHT22;4781;48.776;9.200;2023-08-17T02:15:03;20.80;99.90
9486;DHT22;4781;48.776;9.200;2023-08-17T02:17:31;20.70;99.90
9486;DHT22;4781;48.776;9.200;2023-08-17T02:19:59;20.70;99.90
9486;DHT22;4781;48.776;9.200;2023-08-17T02:22:26;20.70;99.90
9486;DHT22;4781;48.776;9.200;2023-08-17T02:24:54;20.70;99.90
9486;DHT22;4781;48.776;9.200;2023-08-17T02:27:21;20.70;99.90
9486;DHT22;4781;48.776;9.200;2023-08-17T02:29:49;20.70;99.90
9486;DHT22;4781;48.776;9.200;2023-08-17T02:32:17;20.70;99.90
9486;DHT22;4781;48.776;9.200;2023-08-17T02:34:44;20.60;99.90
9486;DHT22;4781;48.776;9.200;2023-08-17T02:37:12;20.60;99.90
9486;DHT22;4781;48.776;9.200;2023-08-17T02:39:39;20.60;99.90
9486;DHT22;4781;48.776;9.200;2023-08-17T02:42:07;20.60;99.90
9486;DHT22;4781;48.776;9.200;2023-08-17T02:44:35;20.70;99.90
9486;DHT22;4781;48.776;9.200;2023-08-17T02:47:02;20.60;99.90
9486;DHT22;4781;48.776;9.200;2023-08-17T02:49:30;20.60;99.90
9486;DHT22;4781;48.776;9.200;2023-08-17T02:51:57;20.60;99.90
9486;DHT22;4781;48.776;9.200;2023-08-17T02:54:25;20.60;99.90
9486;DHT22;4781;48.776;9.200;2023-08-17T02:56:53;20.60;99.90
9486;DHT22;4781;48.776;9.200;2023-08-17T02:59:20;20.60;99.90
9486;DHT22;4781;48.776;9.200;2023-08-17T03:01:48;20.60;99.90
9486;DHT22;4781;48.776;9.200;2023-08-17T03:04:16;20.60;99.90
9486;DHT22;4781;48.776;9.200;2023-08-17T03:06:43;20.60;99.90
9486;DHT22;4781;48.776;9.200;2023-08-17T03:09:11;20.60;99.90
9486;DHT22;4781;48.776;9.200;2023-08-17T03:11:39;20.60;99.90
9486;DHT22;4781;48.776;9.200;2023-08-17T03:14:06;20.60;99.90
9486;DHT22;4781;48.776;9.200;2023-08-17T03:16:34;20.60;99.90
9486;DHT22;4781;48.776;9.200;2023-08-17T03:19:01;20.60;99.90
9486;DHT22;4781;48.776;9.200;2023-08-17T03:21:29;20.60;99.90
9486;DHT22;4781;48.776;9.200;2023-08-17T03:23:57;20.60;99.90
9486;DHT22;4781;48.776;9.200;2023-08-17T03:26:24;20.60;99.90
9486;DHT22;4781;48.776;9.200;2023-08-17T03:28:52;20.60;99.90
9486;DHT22;4781;48.776;9.200;2023-08-17T03:31:23;20.60;99.90
9486;DHT22;4781;48.776;9.200;2023-08-17T03:33:50;20.50;99.90
9486;DHT22;4781;48.776;9.200;2023-08-17T03:36:18;20.50;99.90
9486;DHT22;4781;48.776;9.200;2023-08-17T03:38:46;20.50;99.90
9486;DHT22;4781;48.776;9.200;2023-08-17T03:41:13;20.50;99.90
9486;DHT22;4781;48.776;9.200;2023-08-17T03:43:41;20.50;99.90
9486;DHT22;4781;48.776;9.200;2023-08-17T03:46:08;20.50;99.90
9486;DHT22;4781;48.776;9.200;2023-08-17T03:48:36;20.50;99.90
9486;DHT22;4781;48.776;9.200;2023-08-17T03:51:04;20.50;99.90
9486;DHT22;4781;48.776;9.200;2023-08-17T03:53:31;20.50;99.90
9486;DHT22;4781;48.776;9.200;2023-08-17T03:55:59;20.50;99.90
9486;DHT22;4781;48.776;9.200;2023-08-17T03:58:26;20.50;99.90
9486;DHT22;4781;48.776;9.200;2023-08-17T04:00:56;20.40;99.90
9486;DHT22;4781;48.776;9.200;2023-08-17T04:03:23;20.50;99.90
9486;DHT22;4781;48.776;9.200;2023-08-17T04:05:51;20.50;99.90
9486;DHT22;4781;48.776;9.200;2023-08-17T04:08:18;20.50;99.90
9486;DHT22;4781;48.776;9.200;2023-08-17T04:10:46;20.50;99.90
9486;DHT22;4781;48.776;9.200;2023-08-17T04:13:13;20.50;99.90
9486;DHT22;4781;48.776;9.200;2023-08-17T04:15:41;20.50;99.90
9486;DHT22;4781;48.776;9.200;2023-08-17T04:18:09;20.50;99.90
9486;DHT22;4781;48.776;9.200;2023-08-17T04:20:37;20.50;99.90
9486;DHT22;4781;48.776;9.200;2023-08-17T04:23:04;20.50;99.90
9486;DHT22;4781;48.776;9.200;2023-08-17T04:25:32;20.50;99.90
9486;DHT22;4781;48.776;9.200;2023-08-17T04:28:00;20.50;99.90
9486;DHT22;4781;48.776;9.200;2023-08-17T04:30:27;20.50;99.90
9486;DHT22;4781;48.776;9.200;2023-08-17T04:32:55;20.50;99.90
9486;DHT22;4781;48.776;9.200;2023-08-17T04:35:23;20.60;99.90
9486;DHT22;4781;48.776;9.200;2023-08-17T04:37:50;20.60;99.90
9486;DHT22;4781;48.776;9.200;2023-08-17T04:40:18;20.60;99.90
9486;DHT22;4781;48.776;9.200;2023-08-17T04:42:45;20.60;99.90
9486;DHT22;4781;48.776;9.200;2023-08-17T04:45:13;20.60;99.90
9486;DHT22;4781;48.776;9.200;2023-08-17T04:47:41;20.60;99.90
9486;DHT22;4781;48.776;9.200;2023-08-17T04:50:08;20.60;99.90
9486;DHT22;4781;48.776;9.200;2023-08-17T04:52:36;20.60;99.90
9486;DHT22;4781;48.776;9.200;2023-08-17T04:55:04;20.60;99.90
9486;DHT22;4781;48.776;9.200;2023-08-17T04:57:32;20.60;99.90
9486;DHT22;4781;48.776;9.200;2023-08-17T04:59:59;20.70;99.90
9486;DHT22;4781;48.776;9.200;2023-08-17T05:02:27;20.70;99.90
9486;DHT22;4781;48.776;9.200;2023-08-17T05:04:54;20.70;99.90
9486;DHT22;4781;48.776;9.200;2023-08-17T05:07:22;20.70;99.90
9486;DHT22;4781;48.776;9.200;2023-08-17T05:09:50;20.70;99.90
9486;DHT22;4781;48.776;9.200;2023-08-17T05:12:18;20.70;99.90
9486;DHT22;4781;48.776;9.200;2023-08-17T05:14:46;20.80;99.90
9486;DHT22;4781;48.776;9.200;2023-08-17T05:17:13;20.80;99.90
9486;DHT22;4781;48.776;9.200;2023-08-17T05:19:41;20.80;99.90
9486;DHT22;4781;48.776;9.200;2023-08-17T05:22:12;20.80;99.90
9486;DHT22;4781;48.776;9.200;2023-08-17T05:24:40;20.80;99.90
9486;DHT22;4781;48.776;9.200;2023-08-17T05:27:08;20.80;99.90
9486;DHT22;4781;48.776;9.200;2023-08-17T05:29:35;20.80;99.90
9486;DHT22;4781;48.776;9.200;2023-08-17T05:32:03;20.80;99.90
9486;DHT22;4781;48.776;9.200;2023-08-17T05:34:31;20.80;99.90
9486;DHT22;4781;48.776;9.200;2023-08-17T05:36:58;20.90;99.90
9486;DHT22;4781;48.776;9.200;2023-08-17T05:39:26;20.80;99.90
9486;DHT22;4781;48.776;9.200;2023-08-17T05:41:54;20.80;99.90
9486;DHT22;4781;48.776;9.200;2023-08-17T05:44:21;20.90;99.90
9486;DHT22;4781;48.776;9.200;2023-08-17T05:46:49;20.90;99.90
9486;DHT22;4781;48.776;9.200;2023-08-17T05:49:16;20.90;99.90
9486;DHT22;4781;48.776;9.200;2023-08-17T05:51:44;21.00;99.90
9486;DHT22;4781;48.776;9.200;2023-08-17T05:54:13;21.00;99.90
9486;DHT22;4781;48.776;9.200;2023-08-17T05:56:40;21.10;99.90
9486;DHT22;4781;48.776;9.200;2023-08-17T05:59:10;21.10;99.90
9486;DHT22;4781;48.776;9.200;2023-08-17T06:01:38;21.00;99.90
9486;DHT22;4781;48.776;9.200;2023-08-17T06:04:06;20.90;99.90
9486;DHT22;4781;48.776;9.200;2023-08-17T06:06:33;21.00;99.90
9486;DHT22;4781;48.776;9.200;2023-08-17T06:09:01;21.00;99.90
9486;DHT22;4781;48.776;9.200;2023-08-17T06:11:29;21.00;99.90
9486;DHT22;4781;48.776;9.200;2023-08-17T06:13:56;21.10;99.90
9486;DHT22;4781;48.776;9.200;2023-08-17T06:16:24;21.10;99.90
9486;DHT22;4781;48.776;9.200;2023-08-17T06:18:51;21.00;99.90
9486;DHT22;4781;48.776;9.200;2023-08-17T06:21:19;21.00;99.90
9486;DHT22;4781;48.776;9.200;2023-08-17T06:23:47;21.00;99.90
9486;DHT22;4781;48.776;9.200;2023-08-17T06:26:14;21.10;99.90
9486;DHT22;4781;48.776;9.200;2023-08-17T06:28:42;21.10;99.90
9486;DHT22;4781;48.776;9.200;2023-08-17T06:31:09;21.20;99.90
9486;DHT22;4781;48.776;9.200;2023-08-17T06:33:37;21.20;99.90
9486;DHT22;4781;48.776;9.200;2023-08-17T06:36:05;21.20;99.90
9486;DHT22;4781;48.776;9.200;2023-08-17T06:38:32;21.30;99.90
9486;DHT22;4781;48.776;9.200;2023-08-17T06:41:00;21.40;99.90
9486;DHT22;4781;48.776;9.200;2023-08-17T06:43:27;21.50;99.90
9486;DHT22;4781;48.776;9.200;2023-08-17T06:45:56;21.50;99.90
9486;DHT22;4781;48.776;9.200;2023-08-17T06:48:23;21.60;99.90
9486;DHT22;4781;48.776;9.200;2023-08-17T06:50:51;21.60;99.90
9486;DHT22;4781;48.776;9.200;2023-08-17T06:53:18;21.70;99.90
9486;DHT22;4781;48.776;9.200;2023-08-17T06:55:46;21.60;99.90
9486;DHT22;4781;48.776;9.200;2023-08-17T06:58:14;21.60;99.90
9486;DHT22;4781;48.776;9.200;2023-08-17T07:00:41;21.60;99.90
9486;DHT22;4781;48.776;9.200;2023-08-17T07:03:10;21.60;99.90
9486;DHT22;4781;48.776;9.200;2023-08-17T07:05:38;21.60;99.90
9486;DHT22;4781;48.776;9.200;2023-08-17T07:08:05;21.60;99.90
9486;DHT22;4781;48.776;9.200;2023-08-17T07:10:33;21.60;99.90
9486;DHT22;4781;48.776;9.200;2023-08-17T07:13:01;21.70;99.90
9486;DHT22;4781;48.776;9.200;2023-08-17T07:15:31;21.80;99.90
9486;DHT22;4781;48.776;9.200;2023-08-17T07:17:59;21.70;99.90
9486;DHT22;4781;48.776;9.200;2023-08-17T07:20:26;21.70;99.90
9486;DHT22;4781;48.776;9.200;2023-08-17T07:22:54;21.70;99.90
9486;DHT22;4781;48.776;9.200;2023-08-17T07:25:21;21.90;99.90
9486;DHT22;4781;48.776;9.200;2023-08-17T07:27:50;22.00;99.90
9486;DHT22;4781;48.776;9.200;2023-08-17T07:30:18;22.20;99.90
9486;DHT22;4781;48.776;9.200;2023-08-17T07:32:45;22.30;99.90
9486;DHT22;4781;48.776;9.200;2023-08-17T07:35:13;22.30;99.90
9486;DHT22;4781;48.776;9.200;2023-08-17T07:37:41;22.40;99.90
9486;DHT22;4781;48.776;9.200;2023-08-17T07:40:08;22.60;99.90
9486;DHT22;4781;48.776;9.200;2023-08-17T07:42:36;22.70;99.90
9486;DHT22;4781;48.776;9.200;2023-08-17T07:45:04;22.80;99.90
9486;DHT22;4781;48.776;9.200;2023-08-17T07:47:36;22.90;99.90
9486;DHT22;4781;48.776;9.200;2023-08-17T07:50:05;22.90;99.90
9486;DHT22;4781;48.776;9.200;2023-08-17T07:52:33;23.20;99.90
9486;DHT22;4781;48.776;9.200;2023-08-17T07:55:00;23.30;99.90
9486;DHT22;4781;48.776;9.200;2023-08-17T07:57:28;23.50;99.90
9486;DHT22;4781;48.776;9.200;2023-08-17T07:59:55;23.70;99.90
9486;DHT22;4781;48.776;9.200;2023-08-17T08:02:23;23.90;99.90
9486;DHT22;4781;48.776;9.200;2023-08-17T08:04:50;24.00;99.90
9486;DHT22;4781;48.776;9.200;2023-08-17T08:07:18;24.20;99.90
9486;DHT22;4781;48.776;9.200;2023-08-17T08:09:46;24.40;99.90
9486;DHT22;4781;48.776;9.200;2023-08-17T08:12:13;24.80;99.90
9486;DHT22;4781;48.776;9.200;2023-08-17T08:14:41;25.10;99.90
9486;DHT22;4781;48.776;9.200;2023-08-17T08:17:08;25.30;99.90
9486;DHT22;4781;48.776;9.200;2023-08-17T08:19:36;25.40;99.90
9486;DHT22;4781;48.776;9.200;2023-08-17T08:22:04;25.60;99.90
9486;DHT22;4781;48.776;9.200;2023-08-17T08:24:31;25.80;99.90
9486;DHT22;4781;48.776;9.200;2023-08-17T08:27:01;25.80;99.90
9486;DHT22;4781;48.776;9.200;2023-08-17T08:29:28;25.80;99.90
9486;DHT22;4781;48.776;9.200;2023-08-17T08:31:56;25.60;99.90
9486;DHT22;4781;48.776;9.200;2023-08-17T08:34:25;25.30;99.90
9486;DHT22;4781;48.776;9.200;2023-08-17T08:36:53;25.20;99.90
9486;DHT22;4781;48.776;9.200;2023-08-17T08:39:20;25.20;99.90
9486;DHT22;4781;48.776;9.200;2023-08-17T08:41:48;25.20;99.90
9486;DHT22;4781;48.776;9.200;2023-08-17T08:44:16;25.50;99.90
9486;DHT22;4781;48.776;9.200;2023-08-17T08:46:44;25.50;99.90
9486;DHT22;4781;48.776;9.200;2023-08-17T08:49:12;25.50;99.90
9486;DHT22;4781;48.776;9.200;2023-08-17T08:51:48;25.70;99.90
9486;DHT22;4781;48.776;9.200;2023-08-17T08:54:20;25.80;99.90
9486;DHT22;4781;48.776;9.200;2023-08-17T08:56:58;25.90;99.90
9486;DHT22;4781;48.776;9.200;2023-08-17T08:59:22;26.00;99.90
9486;DHT22;4781;48.776;9.200;2023-08-17T09:01:51;26.10;99.90
9486;DHT22;4781;48.776;9.200;2023-08-17T09:04:19;26.20;99.90
9486;DHT22;4781;48.776;9.200;2023-08-17T09:06:46;26.30;99.90
9486;DHT22;4781;48.776;9.200;2023-08-17T09:09:15;26.30;99.90
9486;DHT22;4781;48.776;9.200;2023-08-17T09:11:43;26.40;99.90
9486;DHT22;4781;48.776;9.200;2023-08-17T09:14:11;26.30;99.90
9486;DHT22;4781;48.776;9.200;2023-08-17T09:16:39;26.40;99.90
9486;DHT22;4781;48.776;9.200;2023-08-17T09:19:06;26.20;99.90
9486;DHT22;4781;48.776;9.200;2023-08-17T09:21:34;26.30;99.90
9486;DHT22;4781;48.776;9.200;2023-08-17T09:24:02;26.30;99.90
9486;DHT22;4781;48.776;9.200;2023-08-17T09:26:32;26.20;99.90
9486;DHT22;4781;48.776;9.200;2023-08-17T09:29:00;26.50;99.90
9486;DHT22;4781;48.776;9.200;2023-08-17T09:31:30;26.80;99.90
9486;DHT22;4781;48.776;9.200;2023-08-17T09:33:58;27.00;99.90
9486;DHT22;4781;48.776;9.200;2023-08-17T09:36:28;27.10;99.90
9486;DHT22;4781;48.776;9.200;2023-08-17T09:38:55;26.90;99.90
9486;DHT22;4781;48.776;9.200;2023-08-17T09:41:23;26.90;99.90
9486;DHT22;4781;48.776;9.200;2023-08-17T09:43:51;26.90;99.90
9486;DHT22;4781;48.776;9.200;2023-08-17T09:46:19;26.80;99.90
9486;DHT22;4781;48.776;9.200;2023-08-17T09:48:47;26.90;99.90
9486;DHT22;4781;48.776;9.200;2023-08-17T09:51:16;26.90;99.90
9486;DHT22;4781;48.776;9.200;2023-08-17T09:53:43;27.10;99.90
9486;DHT22;4781;48.776;9.200;2023-08-17T09:56:12;27.30;99.90
9486;DHT22;4781;48.776;9.200;2023-08-17T09:58:40;27.10;99.90
9486;DHT22;4781;48.776;9.200;2023-08-17T10:01:08;27.20;99.90
9486;DHT22;4781;48.776;9.200;2023-08-17T10:03:38;27.40;99.90
9486;DHT22;4781;48.776;9.200;2023-08-17T10:06:09;27.40;99.90
9486;DHT22;4781;48.776;9.200;2023-08-17T10:08:42;27.50;99.90
9486;DHT22;4781;48.776;9.200;2023-08-17T10:11:10;27.80;99.90
9486;DHT22;4781;48.776;9.200;2023-08-17T10:13:59;27.50;99.90
9486;DHT22;4781;48.776;9.200;2023-08-17T10:16:57;27.40;99.90
9486;DHT22;4781;48.776;9.200;2023-08-17T10:24:33;27.60;99.90
9486;DHT22;4781;48.776;9.200;2023-08-17T10:27:04;27.60;99.90
9486;DHT22;4781;48.776;9.200;2023-08-17T10:29:33;27.90;99.90
9486;DHT22;4781;48.776;9.200;2023-08-17T10:32:02;28.10;99.90
9486;DHT22;4781;48.776;9.200;2023-08-17T10:34:30;28.20;99.90
9486;DHT22;4781;48.776;9.200;2023-08-17T10:36:58;28.40;99.90
9486;DHT22;4781;48.776;9.200;2023-08-17T10:39:28;28.50;99.90
9486;DHT22;4781;48.776;9.200;2023-08-17T10:41:57;28.40;99.90
9486;DHT22;4781;48.776;9.200;2023-08-17T10:44:49;28.50;99.90
9486;DHT22;4781;48.776;9.200;2023-08-17T10:47:24;28.40;99.90
9486;DHT22;4781;48.776;9.200;2023-08-17T10:49:57;28.70;99.90
9486;DHT22;4781;48.776;9.200;2023-08-17T10:52:37;28.90;99.90
9486;DHT22;4781;48.776;9.200;2023-08-17T10:55:06;29.00;99.90
9486;DHT22;4781;48.776;9.200;2023-08-17T10:57:43;28.90;99.90
9486;DHT22;4781;48.776;9.200;2023-08-17T11:00:21;28.90;99.90
9486;DHT22;4781;48.776;9.200;2023-08-17T11:02:58;28.70;99.90
9486;DHT22;4781;48.776;9.200;2023-08-17T11:05:39;28.70;99.90
9486;DHT22;4781;48.776;9.200;2023-08-17T11:08:09;28.80;99.90
9486;DHT22;4781;48.776;9.200;2023-08-17T11:10:37;28.70;99.90
9486;DHT22;4781;48.776;9.200;2023-08-17T11:13:05;29.00;99.90
9486;DHT22;4781;48.776;9.200;2023-08-17T11:15:38;29.20;99.90
9486;DHT22;4781;48.776;9.200;2023-08-17T11:18:08;29.30;99.90
9486;DHT22;4781;48.776;9.200;2023-08-17T11:20:38;29.50;99.90
9486;DHT22;4781;48.776;9.200;2023-08-17T11:23:06;29.60;99.90
9486;DHT22;4781;48.776;9.200;2023-08-17T11:25:35;29.70;99.90
9486;DHT22;4781;48.776;9.200;2023-08-17T11:28:03;29.70;99.90
9486;DHT22;4781;48.776;9.200;2023-08-17T11:30:31;29.80;99.90
9486;DHT22;4781;48.776;9.200;2023-08-17T11:33:00;29.60;99.90
9486;DHT22;4781;48.776;9.200;2023-08-17T11:35:28;29.60;99.90
9486;DHT22;4781;48.776;9.200;2023-08-17T11:37:56;29.40;99.90
9486;DHT22;4781;48.776;9.200;2023-08-17T11:40:25;29.30;99.90
9486;DHT22;4781;48.776;9.200;2023-08-17T11:42:53;29.50;99.90
9486;DHT22;4781;48.776;9.200;2023-08-17T11:45:21;29.80;99.90
9486;DHT22;4781;48.776;9.200;2023-08-17T11:47:49;30.10;99.90
9486;DHT22;4781;48.776;9.200;2023-08-17T11:50:17;30.20;99.90
9486;DHT22;4781;48.776;9.200;2023-08-17T11:52:45;30.30;99.90
9486;DHT22;4781;48.776;9.200;2023-08-17T11:55:15;30.30;99.90
9486;DHT22;4781;48.776;9.200;2023-08-17T11:57:44;30.40;99.90
9486;DHT22;4781;48.776;9.200;2023-08-17T12:00:17;30.50;99.90
9486;DHT22;4781;48.776;9.200;2023-08-17T12:02:47;30.60;99.90
9486;DHT22;4781;48.776;9.200;2023-08-17T12:05:25;30.60;99.90
9486;DHT22;4781;48.776;9.200;2023-08-17T12:07:55;30.60;99.90
9486;DHT22;4781;48.776;9.200;2023-08-17T12:10:23;30.50;99.90
9486;DHT22;4781;48.776;9.200;2023-08-17T12:12:51;30.40;99.90
9486;DHT22;4781;48.776;9.200;2023-08-17T12:15:19;30.40;99.90
9486;DHT22;4781;48.776;9.200;2023-08-17T12:17:47;30.40;99.90
9486;DHT22;4781;48.776;9.200;2023-08-17T12:20:20;30.40;99.90
9486;DHT22;4781;48.776;9.200;2023-08-17T12:22:48;30.40;99.90
9486;DHT22;4781;48.776;9.200;2023-08-17T12:25:15;30.30;99.90
9486;DHT22;4781;48.776;9.200;2023-08-17T12:27:43;30.20;99.90
9486;DHT22;4781;48.776;9.200;2023-08-17T12:30:14;30.10;99.90
9486;DHT22;4781;48.776;9.200;2023-08-17T12:32:42;30.10;99.90
9486;DHT22;4781;48.776;9.200;2023-08-17T12:35:09;30.00;99.90
9486;DHT22;4781;48.776;9.200;2023-08-17T12:37:37;30.00;99.90
9486;DHT22;4781;48.776;9.200;2023-08-17T12:40:05;29.90;99.90
9486;DHT22;4781;48.776;9.200;2023-08-17T12:42:34;29.90;99.90
9486;DHT22;4781;48.776;9.200;2023-08-17T12:45:02;29.80;99.90
9486;DHT22;4781;48.776;9.200;2023-08-17T12:47:29;29.70;99.90
9486;DHT22;4781;48.776;9.200;2023-08-17T12:49:57;29.50;99.90
9486;DHT22;4781;48.776;9.200;2023-08-17T12:52:24;29.50;99.90
9486;DHT22;4781;48.776;9.200;2023-08-17T12:54:52;29.40;99.90
9486;DHT22;4781;48.776;9.200;2023-08-17T12:57:20;29.20;99.90
9486;DHT22;4781;48.776;9.200;2023-08-17T12:59:48;29.10;99.90
9486;DHT22;4781;48.776;9.200;2023-08-17T13:02:15;29.10;99.90
9486;DHT22;4781;48.776;9.200;2023-08-17T13:04:43;29.00;99.90
9486;DHT22;4781;48.776;9.200;2023-08-17T13:07:10;28.90;99.90
9486;DHT22;4781;48.776;9.200;2023-08-17T13:09:38;28.80;99.90
9486;DHT22;4781;48.776;9.200;2023-08-17T13:12:06;28.70;99.90
9486;DHT22;4781;48.776;9.200;2023-08-17T13:14:33;28.60;99.90
9486;DHT22;4781;48.776;9.200;2023-08-17T13:17:01;28.40;99.90
9486;DHT22;4781;48.776;9.200;2023-08-17T13:19:29;28.20;99.90
9486;DHT22;4781;48.776;9.200;2023-08-17T13:21:56;28.20;99.90
9486;DHT22;4781;48.776;9.200;2023-08-17T13:24:24;28.20;99.90
9486;DHT22;4781;48.776;9.200;2023-08-17T13:26:51;28.10;99.90
9486;DHT22;4781;48.776;9.200;2023-08-17T13:29:21;28.10;99.90
9486;DHT22;4781;48.776;9.200;2023-08-17T13:31:48;27.90;99.90
9486;DHT22;4781;48.776;9.200;2023-08-17T13:34:16;27.80;99.90
9486;DHT22;4781;48.776;9.200;2023-08-17T13:36:43;27.60;99.90
9486;DHT22;4781;48.776;9.200;2023-08-17T13:39:11;27.50;99.90
9486;DHT22;4781;48.776;9.200;2023-08-17T13:41:39;27.50;99.90
9486;DHT22;4781;48.776;9.200;2023-08-17T13:44:07;27.40;99.90
9486;DHT22;4781;48.776;9.200;2023-08-17T13:46:34;27.20;99.90
9486;DHT22;4781;48.776;9.200;2023-08-17T13:49:03;27.00;99.90
9486;DHT22;4781;48.776;9.200;2023-08-17T13:51:30;26.90;99.90
9486;DHT22;4781;48.776;9.200;2023-08-17T13:53:58;26.80;99.90
9486;DHT22;4781;48.776;9.200;2023-08-17T13:56:26;26.70;99.90
9486;DHT22;4781;48.776;9.200;2023-08-17T13:58:53;26.60;99.90
9486;DHT22;4781;48.776;9.200;2023-08-17T14:01:21;26.60;99.90
9486;DHT22;4781;48.776;9.200;2023-08-17T14:03:48;26.50;99.90
9486;DHT22;4781;48.776;9.200;2023-08-17T14:06:16;26.40;99.90
9486;DHT22;4781;48.776;9.200;2023-08-17T14:08:44;26.30;99.90
9486;DHT22;4781;48.776;9.200;2023-08-17T14:11:11;26.20;99.90
9486;DHT22;4781;48.776;9.200;2023-08-17T14:13:39;26.20;99.90
9486;DHT22;4781;48.776;9.200;2023-08-17T14:16:07;26.10;99.90
9486;DHT22;4781;48.776;9.200;2023-08-17T14:18:34;26.20;99.90
9486;DHT22;4781;48.776;9.200;2023-08-17T14:21:02;26.10;99.90
9486;DHT22;4781;48.776;9.200;2023-08-17T14:23:29;26.10;99.90
9486;DHT22;4781;48.776;9.200;2023-08-17T14:25:57;26.10;99.90
9486;DHT22;4781;48.776;9.200;2023-08-17T14:28:25;26.00;99.90
9486;DHT22;4781;48.776;9.200;2023-08-17T14:30:53;25.90;99.90
9486;DHT22;4781;48.776;9.200;2023-08-17T14:33:20;25.90;99.90
9486;DHT22;4781;48.776;9.200;2023-08-17T14:35:48;25.90;99.90
9486;DHT22;4781;48.776;9.200;2023-08-17T14:38:16;25.80;99.90
9486;DHT22;4781;48.776;9.200;2023-08-17T14:40:45;25.80;99.90
9486;DHT22;4781;48.776;9.200;2023-08-17T14:43:13;25.70;99.90
9486;DHT22;4781;48.776;9.200;2023-08-17T14:45:44;25.70;99.90
9486;DHT22;4781;48.776;9.200;2023-08-17T14:48:11;25.70;99.90
9486;DHT22;4781;48.776;9.200;2023-08-17T14:50:39;25.70;99.90
9486;DHT22;4781;48.776;9.200;2023-08-17T14:53:07;25.70;99.90
9486;DHT22;4781;48.776;9.200;2023-08-17T14:55:34;25.60;99.90
9486;DHT22;4781;48.776;9.200;2023-08-17T14:58:02;25.60;99.90
9486;DHT22;4781;48.776;9.200;2023-08-17T15:00:30;25.50;99.90
9486;DHT22;4781;48.776;9.200;2023-08-17T15:02:58;25.50;99.90
9486;DHT22;4781;48.776;9.200;2023-08-17T15:05:25;25.60;99.90
9486;DHT22;4781;48.776;9.200;2023-08-17T15:07:53;25.60;99.90
9486;DHT22;4781;48.776;9.200;2023-08-17T15:10:21;25.70;99.90
9486;DHT22;4781;48.776;9.200;2023-08-17T15:12:48;25.70;99.90
9486;DHT22;4781;48.776;9.200;2023-08-17T15:15:16;25.70;99.90
9486;DHT22;4781;48.776;9.200;2023-08-17T15:17:43;25.70;99.90
9486;DHT22;4781;48.776;9.200;2023-08-17T15:20:11;25.70;99.90
9486;DHT22;4781;48.776;9.200;2023-08-17T15:22:39;25.70;99.90
9486;DHT22;4781;48.776;9.200;2023-08-17T15:25:07;25.70;99.90
9486;DHT22;4781;48.776;9.200;2023-08-17T15:27:34;25.70;99.90
9486;DHT22;4781;48.776;9.200;2023-08-17T15:30:02;25.80;99.90
9486;DHT22;4781;48.776;9.200;2023-08-17T15:32:30;25.80;99.90
9486;DHT22;4781;48.776;9.200;2023-08-17T15:34:58;25.80;99.90
9486;DHT22;4781;48.776;9.200;2023-08-17T15:37:25;25.80;99.90
9486;DHT22;4781;48.776;9.200;2023-08-17T15:39:54;25.80;99.90
9486;DHT22;4781;48.776;9.200;2023-08-17T15:42:22;25.90;99.90
9486;DHT22;4781;48.776;9.200;2023-08-17T15:44:51;25.80;99.90
9486;DHT22;4781;48.776;9.200;2023-08-17T15:47:18;25.80;99.90
9486;DHT22;4781;48.776;9.200;2023-08-17T15:49:46;25.80;99.90
9486;DHT22;4781;48.776;9.200;2023-08-17T15:52:14;25.90;99.90
9486;DHT22;4781;48.776;9.200;2023-08-17T15:54:42;25.80;99.90
9486;DHT22;4781;48.776;9.200;2023-08-17T15:57:10;25.80;99.90
9486;DHT22;4781;48.776;9.200;2023-08-17T15:59:37;25.80;99.90
9486;DHT22;4781;48.776;9.200;2023-08-17T16:02:08;25.80;99.90
9486;DHT22;4781;48.776;9.200;2023-08-17T16:04:35;25.80;99.90
9486;DHT22;4781;48.776;9.200;2023-08-17T16:07:03;25.80;99.90
9486;DHT22;4781;48.776;9.200;2023-08-17T16:09:30;25.90;99.90
9486;DHT22;4781;48.776;9.200;2023-08-17T16:11:58;25.90;99.90
9486;DHT22;4781;48.776;9.200;2023-08-17T16:14:26;25.90;99.90